| time (UTC) | temp C | wind direction | speed KPH | gust KPH | rain 1hr cm | rain 24hr cm | rain mn cm | humidity % | barometer mb |
| 20260510000005 | 14 | 92 | 3.2 | 4.8 | 0.00 | 0.86 | 0.79 | 86 | 1007.2 |
| 20260509235504 | 15 | 78 | 3.2 | 4.8 | 0.00 | 0.86 | 0.79 | 86 | 1007.1 |
| 20260509235005 | 15 | 126 | 1.6 | 4.8 | 0.00 | 0.86 | 0.79 | 85 | 1007.1 |
| 20260509234504 | 15 | 101 | 1.6 | 4.8 | 0.00 | 0.86 | 0.79 | 85 | 1007.0 |
| 20260509234004 | 15 | 88 | 1.6 | 4.8 | 0.00 | 0.86 | 0.79 | 85 | 1007.0 |
| 20260509233505 | 15 | 69 | 1.6 | 4.8 | 0.00 | 0.86 | 0.79 | 85 | 1006.9 |
| 20260509233004 | 15 | 90 | 1.6 | 4.8 | 0.00 | 0.86 | 0.79 | 86 | 1006.9 |
| 20260509232504 | 15 | 82 | 3.2 | 4.8 | 0.00 | 0.86 | 0.79 | 86 | 1006.9 |
| 20260509231005 | 15 | 93 | 1.6 | 4.8 | 0.00 | 0.86 | 0.79 | 86 | 1007.0 |
| 20260509230504 | 15 | 153 | 1.6 | 4.8 | 0.00 | 0.86 | 0.79 | 85 | 1007.0 |
| 20260509225004 | 15 | 76 | 1.6 | 4.8 | 0.00 | 0.89 | 0.79 | 85 | 1007.0 |
| 20260509224505 | 15 | 74 | 1.6 | 8.0 | 0.00 | 0.89 | 0.79 | 85 | 1007.0 |
| 20260509224005 | 15 | 150 | 3.2 | 4.8 | 0.00 | 0.91 | 0.79 | 85 | 1007.1 |
| 20260509223504 | 15 | 146 | 3.2 | 4.8 | 0.00 | 0.91 | 0.79 | 86 | 1007.1 |
| 20260509222504 | 15 | 135 | 3.2 | 11.3 | 0.00 | 0.91 | 0.79 | 86 | 1007.1 |
| 20260509222004 | 15 | 133 | 3.2 | 4.8 | 0.00 | 0.91 | 0.79 | 86 | 1007.1 |
| 20260509221506 | 15 | 82 | 3.2 | 4.8 | 0.00 | 0.94 | 0.79 | 86 | 1007.1 |
| 20260509220004 | 15 | 77 | 3.2 | 4.8 | 0.00 | 0.94 | 0.79 | 86 | 1007.4 |
| 20260509215504 | 15 | 132 | 1.6 | 9.7 | 0.00 | 0.94 | 0.79 | 86 | 1007.4 |
| 20260509215004 | 15 | 87 | 4.8 | 9.7 | 0.00 | 0.94 | 0.79 | 85 | 1007.4 |
| 20260509214504 | 15 | 69 | 4.8 | 4.8 | 0.00 | 0.94 | 0.79 | 86 | 1007.4 |
| 20260509214004 | 15 | 69 | 4.8 | 8.0 | 0.00 | 0.94 | 0.79 | 85 | 1007.3 |
| 20260509213504 | 16 | 78 | 3.2 | 11.3 | 0.00 | 0.94 | 0.79 | 85 | 1007.4 |
| 20260509212504 | 16 | 103 | 1.6 | 4.8 | 0.00 | 0.94 | 0.79 | 88 | 1007.6 |
| 20260509212004 | 15 | 60 | 3.2 | 4.8 | 0.00 | 0.94 | 0.79 | 85 | 1007.7 |
| 20260509211504 | 15 | 285 | 0.0 | 4.8 | 0.00 | 0.94 | 0.79 | 86 | 1007.7 |
| 20260509211004 | 15 | 258 | 1.6 | 3.2 | 0.00 | 0.94 | 0.79 | 89 | 1007.7 |
| 20260509210504 | 15 | 39 | 1.6 | 3.2 | 0.00 | 0.94 | 0.79 | 90 | 1007.6 |
| 20260509210004 | 15 | 30 | 0.0 | 3.2 | 0.00 | 0.94 | 0.79 | 91 | 1007.7 |
| 20260509205503 | 15 | 30 | 1.6 | 3.2 | 0.00 | 0.94 | 0.79 | 91 | 1007.7 |
| 20260509205004 | 14 | 188 | 0.0 | 1.6 | 0.00 | 0.94 | 0.79 | 92 | 1007.7 |
| 20260509204504 | 14 | 222 | 1.6 | 3.2 | 0.00 | 0.94 | 0.79 | 93 | 1007.8 |
| 20260509204004 | 13 | 35 | 0.0 | 3.2 | 0.00 | 0.94 | 0.79 | 94 | 1007.8 |
| 20260509203504 | 13 | 138 | 1.6 | 3.2 | 0.00 | 0.94 | 0.79 | 94 | 1007.9 |
| 20260509203004 | 13 | 196 | 1.6 | 3.2 | 0.00 | 0.94 | 0.79 | 93 | 1007.9 |
| 20260509202504 | 13 | 196 | 0.0 | 1.6 | 0.00 | 0.94 | 0.79 | 93 | 1007.9 |
| 20260509201004 | 13 | 196 | 0.0 | 0.0 | 0.00 | 0.94 | 0.79 | 95 | 1008.1 |
| 20260509200004 | 13 | 196 | 0.0 | 1.6 | 0.00 | 0.97 | 0.79 | 95 | 1008.3 |
| 20260509195504 | 13 | 196 | 1.6 | 1.6 | 0.00 | 0.97 | 0.79 | 95 | 1008.4 |
| 20260509195004 | 13 | 196 | 0.0 | 1.6 | 0.00 | 0.97 | 0.79 | 95 | 1008.4 |
| 20260509194504 | 13 | 196 | 0.0 | 1.6 | 0.03 | 0.97 | 0.79 | 95 | 1008.5 |
| 20260509194004 | 13 | 196 | 0.0 | 0.0 | 0.03 | 0.97 | 0.79 | 94 | 1008.6 |
| 20260509193504 | 12 | 196 | 0.0 | 0.0 | 0.03 | 0.97 | 0.79 | 94 | 1008.6 |
| 20260509193004 | 12 | 196 | 0.0 | 0.0 | 0.03 | 0.99 | 0.79 | 94 | 1008.6 |
| 20260509192504 | 12 | 196 | 0.0 | 1.6 | 0.03 | 0.99 | 0.79 | 94 | 1008.6 |
| 20260509191504 | 12 | 196 | 1.6 | 3.2 | 0.05 | 0.99 | 0.79 | 95 | 1008.6 |
| 20260509191003 | 12 | 196 | 3.2 | 4.8 | 0.05 | 0.99 | 0.79 | 94 | 1008.6 |
| 20260509190504 | 12 | 162 | 1.6 | 4.8 | 0.05 | 0.99 | 0.79 | 95 | 1008.6 |
| 20260509190004 | 12 | 232 | 1.6 | 4.8 | 0.05 | 0.99 | 0.79 | 95 | 1008.6 |
| 20260509185005 | 12 | 220 | 1.6 | 4.8 | 0.08 | 0.99 | 0.79 | 95 | 1008.7 |
| 20260509184503 | 12 | 220 | 3.2 | 4.8 | 0.05 | 0.97 | 0.76 | 96 | 1008.7 |
| 20260509184004 | 12 | 196 | 0.0 | 0.0 | 0.05 | 0.97 | 0.76 | 96 | 1008.7 |
| 20260509183004 | 12 | 196 | 1.6 | 4.8 | 0.08 | 0.97 | 0.76 | 95 | 1008.7 |
| 20260509182003 | 12 | 242 | 1.6 | 3.2 | 0.05 | 0.99 | 0.74 | 96 | 1008.8 |
| 20260509181504 | 12 | 242 | 1.6 | 3.2 | 0.08 | 0.99 | 0.74 | 96 | 1008.8 |
| 20260509181004 | 12 | 242 | 1.6 | 3.2 | 0.08 | 0.99 | 0.74 | 96 | 1008.8 |
| 20260509180504 | 12 | 327 | 0.0 | 3.2 | 0.10 | 0.99 | 0.74 | 96 | 1008.8 |
| 20260509180004 | 12 | 321 | 1.6 | 4.8 | 0.10 | 0.99 | 0.74 | 96 | 1008.8 |
| 20260509175504 | 12 | 338 | 1.6 | 3.2 | 0.10 | 0.97 | 0.71 | 96 | 1008.8 |
| 20260509175004 | 12 | 341 | 1.6 | 4.8 | 0.13 | 0.97 | 0.71 | 96 | 1008.8 |
| 20260509174504 | 11 | 355 | 0.0 | 4.8 | 0.13 | 0.97 | 0.71 | 96 | 1008.7 |
| 20260509174003 | 11 | 42 | 3.2 | 4.8 | 0.15 | 0.97 | 0.71 | 96 | 1008.7 |
| 20260509173504 | 11 | 40 | 1.6 | 3.2 | 0.18 | 0.97 | 0.71 | 96 | 1008.8 |
| 20260509173003 | 11 | 49 | 3.2 | 4.8 | 0.15 | 0.94 | 0.69 | 96 | 1008.8 |
| 20260509172504 | 11 | 63 | 4.8 | 4.8 | 0.18 | 0.94 | 0.69 | 96 | 1008.8 |
| 20260509172004 | 11 | 67 | 3.2 | 4.8 | 0.18 | 0.94 | 0.69 | 96 | 1008.8 |
| 20260509171504 | 11 | 41 | 3.2 | 4.8 | 0.15 | 0.91 | 0.66 | 96 | 1008.8 |
| 20260509171004 | 11 | 31 | 4.8 | 8.0 | 0.18 | 0.91 | 0.66 | 96 | 1008.8 |
| 20260509170004 | 11 | 92 | 3.2 | 4.8 | 0.15 | 0.89 | 0.64 | 96 | 1008.8 |
| 20260509164504 | 11 | 38 | 3.2 | 4.8 | 0.10 | 0.84 | 0.58 | 96 | 1008.8 |
| 20260509164004 | 11 | 74 | 0.0 | 3.2 | 0.08 | 0.81 | 0.56 | 96 | 1008.9 |
| 20260509163504 | 11 | 70 | 3.2 | 4.8 | 0.05 | 0.79 | 0.53 | 96 | 1008.8 |
| 20260509163004 | 11 | 78 | 3.2 | 4.8 | 0.08 | 0.79 | 0.53 | 96 | 1008.8 |
| 20260509162504 | 11 | 72 | 1.6 | 4.8 | 0.08 | 0.79 | 0.53 | 96 | 1009.0 |
| 20260509162004 | 11 | 51 | 1.6 | 3.2 | 0.05 | 0.76 | 0.51 | 96 | 1008.9 |
| 20260509161503 | 11 | 81 | 4.8 | 4.8 | 0.05 | 0.76 | 0.51 | 96 | 1009.0 |
| 20260509161004 | 11 | 75 | 1.6 | 4.8 | 0.03 | 0.74 | 0.48 | 96 | 1009.1 |
| 20260509160504 | 11 | 137 | 3.2 | 4.8 | 0.05 | 0.74 | 0.48 | 96 | 1009.1 |
| 20260509160004 | 11 | 88 | 3.2 | 4.8 | 0.05 | 0.74 | 0.48 | 96 | 1009.1 |
| 20260509155503 | 11 | 117 | 1.6 | 4.8 | 0.08 | 0.74 | 0.48 | 96 | 1009.2 |
| 20260509155003 | 11 | 95 | 3.2 | 9.7 | 0.08 | 0.74 | 0.48 | 96 | 1009.1 |
| 20260509154504 | 11 | 94 | 3.2 | 9.7 | 0.10 | 0.74 | 0.48 | 96 | 1009.2 |
| 20260509154003 | 11 | 108 | 1.6 | 9.7 | 0.10 | 0.74 | 0.48 | 96 | 1009.3 |
| 20260509153504 | 11 | 71 | 4.8 | 8.0 | 0.10 | 0.74 | 0.48 | 96 | 1009.4 |
| 20260509153004 | 11 | 131 | 3.2 | 9.7 | 0.10 | 0.71 | 0.46 | 96 | 1009.4 |
| 20260509152504 | 11 | 93 | 4.8 | 9.7 | 0.10 | 0.71 | 0.46 | 96 | 1009.4 |
| 20260509151504 | 11 | 120 | 3.2 | 4.8 | 0.13 | 0.71 | 0.46 | 96 | 1009.5 |
| 20260509151004 | 11 | 119 | 1.6 | 4.8 | 0.13 | 0.71 | 0.46 | 96 | 1009.5 |
| 20260509150504 | 11 | 81 | 4.8 | 8.0 | 0.13 | 0.69 | 0.43 | 96 | 1009.5 |
| 20260509150004 | 10 | 59 | 3.2 | 4.8 | 0.13 | 0.69 | 0.43 | 96 | 1009.5 |
| 20260509145505 | 10 | 89 | 3.2 | 9.7 | 0.15 | 0.69 | 0.43 | 96 | 1009.5 |
| 20260509145005 | 10 | 80 | 1.6 | 4.8 | 0.13 | 0.66 | 0.41 | 96 | 1009.6 |
| 20260509144004 | 10 | 86 | 3.2 | 4.8 | 0.13 | 0.64 | 0.38 | 96 | 1009.6 |
| 20260509143504 | 10 | 106 | 4.8 | 9.7 | 0.13 | 0.64 | 0.38 | 96 | 1009.6 |
| 20260509143004 | 10 | 80 | 3.2 | 4.8 | 0.10 | 0.61 | 0.36 | 96 | 1009.8 |
| 20260509141505 | 10 | 72 | 4.8 | 9.7 | 0.10 | 0.58 | 0.33 | 96 | 1009.7 |
| 20260509141005 | 10 | 140 | 1.6 | 4.8 | 0.10 | 0.58 | 0.33 | 96 | 1009.6 |
| 20260509140504 | 10 | 58 | 3.2 | 4.8 | 0.08 | 0.56 | 0.30 | 96 | 1009.7 |
| 20260509140005 | 10 | 85 | 3.2 | 4.8 | 0.08 | 0.56 | 0.30 | 96 | 1009.7 |
| 20260509135004 | 10 | 75 | 3.2 | 8.0 | 0.08 | 0.53 | 0.28 | 97 | 1009.8 |
| 20260509134504 | 10 | 85 | 0.0 | 8.0 | 0.08 | 0.53 | 0.28 | 97 | 1009.8 |
| 20260509133504 | 10 | 65 | 3.2 | 4.8 | 0.05 | 0.51 | 0.25 | 96 | 1009.8 |
| 20260509133004 | 10 | 66 | 1.6 | 4.8 | 0.05 | 0.51 | 0.25 | 97 | 1009.8 |
| 20260509132504 | 10 | 50 | 3.2 | 4.8 | 0.05 | 0.51 | 0.25 | 96 | 1009.9 |
| 20260509131504 | 10 | 93 | 1.6 | 4.8 | 0.05 | 0.48 | 0.23 | 97 | 1010.0 |
| 20260509130504 | 10 | 80 | 0.0 | 4.8 | 0.05 | 0.48 | 0.23 | 97 | 1010.0 |
| 20260509130004 | 10 | 115 | 0.0 | 0.0 | 0.05 | 0.48 | 0.23 | 96 | 1010.0 |
| 20260509125504 | 10 | 115 | 0.0 | 0.0 | 0.05 | 0.48 | 0.23 | 96 | 1010.0 |
| 20260509124504 | 10 | 115 | 0.0 | 0.0 | 0.03 | 0.46 | 0.20 | 97 | 1010.1 |
| 20260509124004 | 10 | 115 | 0.0 | 0.0 | 0.03 | 0.46 | 0.20 | 97 | 1010.2 |
| 20260509123504 | 10 | 115 | 0.0 | 0.0 | 0.03 | 0.46 | 0.20 | 97 | 1010.1 |
| 20260509123004 | 10 | 115 | 0.0 | 0.0 | 0.03 | 0.46 | 0.20 | 96 | 1010.1 |
| 20260509122504 | 10 | 115 | 0.0 | 0.0 | 0.03 | 0.46 | 0.20 | 96 | 1010.1 |
| 20260509122004 | 10 | 115 | 0.0 | 0.0 | 0.03 | 0.46 | 0.20 | 96 | 1010.1 |
| 20260509121504 | 10 | 115 | 0.0 | 0.0 | 0.03 | 0.46 | 0.20 | 97 | 1010.0 |
| 20260509121004 | 10 | 115 | 0.0 | 1.6 | 0.00 | 0.43 | 0.18 | 97 | 1010.0 |
| 20260509120504 | 10 | 115 | 0.0 | 1.6 | 0.00 | 0.43 | 0.18 | 96 | 1010.1 |
| 20260509120004 | 10 | 115 | 0.0 | 0.0 | 0.00 | 0.43 | 0.18 | 97 | 1010.1 |
| 20260509115004 | 10 | 115 | 0.0 | 0.0 | 0.03 | 0.43 | 0.18 | 97 | 1010.0 |
| 20260509114504 | 10 | 115 | 0.0 | 0.0 | 0.03 | 0.43 | 0.18 | 96 | 1010.1 |
| 20260509114005 | 10 | 63 | 0.0 | 1.6 | 0.03 | 0.43 | 0.18 | 97 | 1010.1 |
| 20260509113504 | 10 | 55 | 0.0 | 0.0 | 0.03 | 0.43 | 0.18 | 96 | 1010.1 |
| 20260509113004 | 10 | 55 | 0.0 | 0.0 | 0.03 | 0.43 | 0.18 | 96 | 1010.1 |
| 20260509112504 | 10 | 55 | 0.0 | 0.0 | 0.03 | 0.43 | 0.18 | 96 | 1010.1 |
| 20260509111504 | 10 | 55 | 1.6 | 3.2 | 0.03 | 0.43 | 0.18 | 96 | 1010.0 |
| 20260509111005 | 10 | 55 | 0.0 | 0.0 | 0.03 | 0.43 | 0.18 | 96 | 1010.1 |
| 20260509110505 | 10 | 55 | 1.6 | 3.2 | 0.03 | 0.43 | 0.18 | 96 | 1010.1 |
| 20260509110004 | 10 | 55 | 0.0 | 1.6 | 0.03 | 0.43 | 0.18 | 96 | 1010.2 |
| 20260509105004 | 10 | 63 | 0.0 | 4.8 | 0.00 | 0.41 | 0.15 | 96 | 1010.3 |
| 20260509103504 | 9 | 78 | 0.0 | 0.0 | 0.00 | 0.41 | 0.15 | 96 | 1010.1 |
| 20260509103004 | 10 | 78 | 0.0 | 0.0 | 0.00 | 0.41 | 0.15 | 96 | 1010.0 |
| 20260509102004 | 10 | 78 | 1.6 | 3.2 | 0.00 | 0.41 | 0.15 | 96 | 1009.9 |
| 20260509101504 | 10 | 81 | 1.6 | 4.8 | 0.00 | 0.41 | 0.15 | 96 | 1009.9 |
| 20260509101004 | 10 | 38 | 0.0 | 3.2 | 0.00 | 0.41 | 0.15 | 96 | 1009.9 |
| 20260509095504 | 10 | 84 | 1.6 | 3.2 | 0.00 | 0.41 | 0.15 | 96 | 1010.0 |
| 20260509095004 | 10 | 84 | 0.0 | 1.6 | 0.00 | 0.41 | 0.15 | 96 | 1010.0 |
| 20260509094504 | 10 | 84 | 0.0 | 1.6 | 0.00 | 0.41 | 0.15 | 96 | 1010.2 |
| 20260509094004 | 10 | 79 | 0.0 | 1.6 | 0.03 | 0.41 | 0.15 | 96 | 1010.2 |
| 20260509093504 | 10 | 43 | 0.0 | 3.2 | 0.03 | 0.41 | 0.15 | 96 | 1010.3 |
| 20260509092504 | 10 | 43 | 0.0 | 4.8 | 0.03 | 0.41 | 0.15 | 96 | 1010.4 |
| 20260509092004 | 10 | 42 | 3.2 | 8.0 | 0.03 | 0.41 | 0.15 | 96 | 1010.5 |
| 20260509091504 | 10 | 69 | 1.6 | 4.8 | 0.03 | 0.41 | 0.15 | 96 | 1010.5 |
| 20260509091004 | 10 | 77 | 4.8 | 9.7 | 0.03 | 0.41 | 0.15 | 96 | 1010.4 |
| 20260509085503 | 10 | 84 | 3.2 | 8.0 | 0.03 | 0.41 | 0.15 | 96 | 1010.3 |
| 20260509085004 | 10 | 76 | 3.2 | 8.0 | 0.03 | 0.41 | 0.15 | 96 | 1010.2 |
| 20260509084504 | 10 | 80 | 1.6 | 4.8 | 0.03 | 0.41 | 0.15 | 96 | 1010.4 |
| 20260509084004 | 10 | 63 | 1.6 | 3.2 | 0.00 | 0.38 | 0.13 | 96 | 1010.5 |
| 20260509083504 | 10 | 63 | 0.0 | 0.0 | 0.00 | 0.38 | 0.13 | 96 | 1010.5 |
| 20260509083004 | 10 | 63 | 1.6 | 3.2 | 0.00 | 0.38 | 0.13 | 96 | 1010.4 |
| 20260509082504 | 10 | 63 | 1.6 | 3.2 | 0.00 | 0.38 | 0.13 | 96 | 1010.3 |
| 20260509082003 | 10 | 63 | 0.0 | 4.8 | 0.00 | 0.38 | 0.13 | 96 | 1010.3 |
| 20260509081503 | 10 | 63 | 1.6 | 4.8 | 0.00 | 0.38 | 0.13 | 96 | 1010.3 |
| 20260509081004 | 10 | 63 | 1.6 | 3.2 | 0.03 | 0.38 | 0.13 | 96 | 1010.3 |
| 20260509080004 | 10 | 63 | 0.0 | 0.0 | 0.03 | 0.38 | 0.13 | 96 | 1010.4 |
| 20260509075003 | 10 | 63 | 0.0 | 0.0 | 0.05 | 0.38 | 0.13 | 96 | 1010.6 |
| 20260509074503 | 10 | 63 | 0.0 | 4.8 | 0.05 | 0.38 | 0.13 | 96 | 1010.5 |
| 20260509073004 | 10 | 63 | 0.0 | 3.2 | 0.05 | 0.38 | 0.13 | 96 | 1010.6 |
| 20260509072504 | 10 | 63 | 0.0 | 3.2 | 0.08 | 0.38 | 0.13 | 96 | 1010.8 |
| 20260509071504 | 10 | 58 | 0.0 | 1.6 | 0.08 | 0.38 | 0.13 | 96 | 1011.0 |
| 20260509070504 | 10 | 58 | 0.0 | 0.0 | 0.08 | 0.36 | 0.10 | 96 | 1011.1 |
| 20260509070003 | 10 | 58 | 0.0 | 0.0 | 0.08 | 0.36 | 0.10 | 96 | 1011.4 |
| 20260509065504 | 10 | 58 | 0.0 | 0.0 | 0.08 | 0.36 | 0.10 | 96 | 1011.1 |
| 20260509064504 | 10 | 58 | 0.0 | 0.0 | 0.05 | 0.33 | 0.08 | 96 | 1011.4 |
| 20260509064004 | 10 | 58 | 0.0 | 0.0 | 0.05 | 0.33 | 0.08 | 96 | 1011.5 |
| 20260509063504 | 10 | 58 | 0.0 | 0.0 | 0.05 | 0.33 | 0.08 | 96 | 1011.5 |
| 20260509063004 | 10 | 58 | 0.0 | 0.0 | 0.05 | 0.33 | 0.08 | 96 | 1011.4 |
| 20260509062004 | 10 | 58 | 0.0 | 0.0 | 0.03 | 0.30 | 0.05 | 96 | 1011.7 |
| 20260509061505 | 10 | 58 | 0.0 | 0.0 | 0.03 | 0.30 | 0.05 | 96 | 1011.8 |
| 20260509060505 | 10 | 58 | 0.0 | 0.0 | 0.03 | 0.28 | 0.03 | 96 | 1011.8 |
| 20260509060004 | 10 | 58 | 0.0 | 0.0 | 0.03 | 0.28 | 0.03 | 96 | 1011.8 |
| 20260509055504 | 10 | 58 | 0.0 | 0.0 | 0.03 | 0.28 | 0.03 | 96 | 1011.8 |
| 20260509055004 | 10 | 58 | 0.0 | 0.0 | 0.03 | 0.28 | 0.03 | 96 | 1011.8 |
| 20260509054504 | 10 | 58 | 0.0 | 0.0 | 0.03 | 0.28 | 0.03 | 96 | 1011.9 |
| 20260509054004 | 10 | 58 | 0.0 | 0.0 | 0.03 | 0.28 | 0.03 | 96 | 1011.7 |
| 20260509053504 | 10 | 58 | 0.0 | 0.0 | 0.03 | 0.28 | 0.03 | 96 | 1011.8 |
| 20260509053004 | 10 | 58 | 0.0 | 0.0 | 0.03 | 0.28 | 0.03 | 96 | 1011.8 |
| 20260509052504 | 10 | 58 | 0.0 | 0.0 | 0.03 | 0.28 | 0.03 | 96 | 1011.8 |
| 20260509052004 | 10 | 58 | 0.0 | 0.0 | 0.03 | 0.28 | 0.03 | 96 | 1011.8 |
| 20260509051004 | 10 | 58 | 0.0 | 0.0 | 0.03 | 0.28 | 0.03 | 95 | 1011.9 |
| 20260509050504 | 10 | 58 | 0.0 | 0.0 | 0.00 | 0.25 | 0.00 | 95 | 1012.0 |
| 20260509050004 | 10 | 58 | 0.0 | 0.0 | 0.00 | 0.25 | 0.00 | 95 | 1012.0 |
| 20260509045504 | 10 | 58 | 0.0 | 0.0 | 0.03 | 0.25 | 0.00 | 95 | 1012.0 |
| 20260509045004 | 10 | 58 | 0.0 | 0.0 | 0.03 | 0.25 | 0.00 | 95 | 1012.0 |
| 20260509044004 | 10 | 58 | 0.0 | 0.0 | 0.03 | 0.25 | 0.00 | 95 | 1011.9 |
| 20260509043504 | 10 | 58 | 0.0 | 0.0 | 0.03 | 0.25 | 0.00 | 95 | 1011.8 |
| 20260509042504 | 10 | 58 | 0.0 | 0.0 | 0.03 | 0.25 | 0.00 | 95 | 1011.7 |
| 20260509042004 | 10 | 58 | 0.0 | 0.0 | 0.03 | 0.25 | 0.00 | 95 | 1011.8 |
| 20260509041504 | 10 | 58 | 0.0 | 0.0 | 0.03 | 0.25 | 0.00 | 95 | 1011.6 |
| 20260509041004 | 10 | 58 | 0.0 | 0.0 | 0.03 | 0.25 | 0.00 | 95 | 1011.6 |
| 20260509040504 | 10 | 58 | 0.0 | 0.0 | 0.03 | 0.25 | 0.00 | 95 | 1011.7 |
| 20260509040004 | 10 | 58 | 0.0 | 0.0 | 0.03 | 0.25 | 0.00 | 95 | 1011.6 |
| 20260509035504 | 10 | 58 | 0.0 | 0.0 | 0.03 | 0.25 | 0.25 | 94 | 1011.8 |
| 20260509034504 | 10 | 58 | 0.0 | 0.0 | 0.00 | 0.23 | 0.23 | 95 | 1012.1 |
| 20260509034004 | 10 | 58 | 0.0 | 0.0 | 0.03 | 0.23 | 0.23 | 94 | 1012.0 |
| 20260509033504 | 10 | 58 | 0.0 | 0.0 | 0.03 | 0.23 | 0.23 | 94 | 1012.1 |
| 20260509033004 | 10 | 58 | 0.0 | 0.0 | 0.03 | 0.23 | 0.23 | 94 | 1012.1 |
| 20260509032504 | 10 | 58 | 0.0 | 0.0 | 0.03 | 0.23 | 0.23 | 94 | 1012.1 |
| 20260509032004 | 10 | 58 | 0.0 | 0.0 | 0.05 | 0.23 | 0.23 | 94 | 1012.1 |
| 20260509031504 | 10 | 58 | 0.0 | 0.0 | 0.05 | 0.23 | 0.23 | 94 | 1012.1 |
| 20260509031004 | 10 | 58 | 0.0 | 0.0 | 0.05 | 0.23 | 0.23 | 94 | 1012.3 |
| 20260509030504 | 10 | 58 | 0.0 | 0.0 | 0.05 | 0.23 | 0.23 | 94 | 1012.3 |
| 20260509030005 | 10 | 58 | 0.0 | 0.0 | 0.05 | 0.28 | 0.23 | 94 | 1012.2 |
| 20260509025004 | 10 | 58 | 0.0 | 0.0 | 0.05 | 0.30 | 0.23 | 94 | 1012.1 |
| 20260509024503 | 10 | 58 | 0.0 | 0.0 | 0.05 | 0.30 | 0.23 | 94 | 1012.2 |
| 20260509024004 | 10 | 58 | 0.0 | 0.0 | 0.03 | 0.28 | 0.20 | 94 | 1012.1 |
| 20260509023504 | 10 | 58 | 0.0 | 0.0 | 0.03 | 0.28 | 0.20 | 94 | 1012.0 |
| 20260509023004 | 10 | 58 | 0.0 | 0.0 | 0.03 | 0.28 | 0.20 | 94 | 1012.1 |
| 20260509022504 | 10 | 58 | 0.0 | 0.0 | 0.03 | 0.30 | 0.20 | 94 | 1012.0 |
| 20260509022004 | 10 | 58 | 0.0 | 0.0 | 0.03 | 0.30 | 0.20 | 93 | 1012.1 |
| 20260509021504 | 10 | 58 | 0.0 | 0.0 | 0.00 | 0.28 | 0.18 | 93 | 1012.1 |
| 20260509021004 | 10 | 58 | 0.0 | 0.0 | 0.00 | 0.28 | 0.18 | 93 | 1012.1 |
| 20260509020505 | 10 | 58 | 0.0 | 0.0 | 0.00 | 0.28 | 0.18 | 93 | 1012.1 |
| 20260509020004 | 10 | 58 | 0.0 | 0.0 | 0.00 | 0.28 | 0.18 | 93 | 1012.0 |
| 20260509015504 | 10 | 58 | 0.0 | 0.0 | 0.00 | 0.28 | 0.18 | 92 | 1011.8 |
| 20260509015003 | 10 | 58 | 0.0 | 0.0 | 0.00 | 0.28 | 0.18 | 92 | 1011.8 |
| 20260509014004 | 10 | 58 | 0.0 | 0.0 | 0.00 | 0.28 | 0.18 | 92 | 1011.8 |
| 20260509013504 | 10 | 58 | 0.0 | 0.0 | 0.00 | 0.28 | 0.18 | 92 | 1011.7 |
| 20260509013004 | 10 | 58 | 0.0 | 0.0 | 0.00 | 0.28 | 0.18 | 92 | 1011.6 |
| 20260509011504 | 10 | 58 | 0.0 | 0.0 | 0.00 | 0.28 | 0.18 | 91 | 1011.3 |
| 20260509010504 | 11 | 58 | 0.0 | 0.0 | 0.00 | 0.28 | 0.18 | 91 | 1011.3 |
| 20260509005503 | 11 | 58 | 0.0 | 0.0 | 0.00 | 0.28 | 0.18 | 91 | 1011.0 |
| 20260509005004 | 11 | 58 | 0.0 | 0.0 | 0.00 | 0.28 | 0.18 | 90 | 1011.1 |
| 20260509004004 | 11 | 58 | 0.0 | 0.0 | 0.00 | 0.28 | 0.18 | 90 | 1011.1 |
| 20260509003504 | 11 | 58 | 0.0 | 0.0 | 0.00 | 0.28 | 0.18 | 90 | 1011.1 |
| 20260509003004 | 11 | 58 | 0.0 | 0.0 | 0.00 | 0.28 | 0.18 | 90 | 1011.0 |
| 20260509002503 | 11 | 58 | 0.0 | 0.0 | 0.00 | 0.28 | 0.18 | 90 | 1011.0 |
| 20260509002004 | 11 | 58 | 0.0 | 0.0 | 0.00 | 0.28 | 0.18 | 90 | 1011.0 |
| 20260509001005 | 11 | 58 | 0.0 | 0.0 | 0.00 | 0.28 | 0.18 | 90 | 1010.9 |
| 20260509000504 | 12 | 58 | 0.0 | 0.0 | 0.00 | 0.28 | 0.18 | 90 | 1010.9 |